Time;durP1;ratioP1;P1;durP2;ratioP2;P2;SDS_P1;SDS_P2;PMS_P1;PMS_P2;Temp;Humidity;BMP_temperature;BMP_pressure;BME280_temperature;BME280_humidity;BME280_pressure;Samples;Min_cycle;Max_cycle;Signal;HPM_P1;HPM_P2
2023/07/04 00:01:48;;;;;;;5.55;2.03;;;;;;;21.73;100.00;96065.81;5085273;28;20036;-83
2023/07/04 00:04:20;;;;;;;6.10;2.33;;;;;;;22.30;100.00;96059.78;5100670;28;20023;-83
2023/07/04 00:06:50;;;;;;;9.07;2.45;;;;;;;22.05;100.00;96060.06;5088031;27;20392;-82
2023/07/04 00:09:17;;;;;;;6.10;2.10;;;;;;;21.99;100.00;96056.44;5106035;27;20102;-83
2023/07/04 00:11:45;;;;;;;7.57;2.47;;;;;;;21.91;100.00;96059.50;5096392;28;20020;-83
2023/07/04 00:14:11;;;;;;;6.43;2.63;;;;;;;22.18;100.00;96051.78;5074422;27;20113;-84
2023/07/04 00:16:37;;;;;;;3.97;2.15;;;;;;;22.21;100.00;96056.69;5107131;28;20114;-83
2023/07/04 00:19:04;;;;;;;7.63;2.75;;;;;;;22.15;100.00;96054.94;5113942;27;20055;-83
2023/07/04 00:21:30;;;;;;;9.10;2.03;;;;;;;22.00;100.00;96052.75;5077377;28;20046;-82
2023/07/04 00:23:55;;;;;;;5.22;1.92;;;;;;;21.97;100.00;96039.00;5091354;28;20031;-83
2023/07/04 00:26:23;;;;;;;6.03;2.42;;;;;;;21.70;100.00;96044.84;5113508;27;20477;-83
2023/07/04 00:28:49;;;;;;;7.05;2.35;;;;;;;21.80;100.00;96047.75;5104801;27;20026;-83
2023/07/04 00:31:19;;;;;;;7.80;2.83;;;;;;;21.51;100.00;96051.38;5121298;27;20027;-83
2023/07/04 00:34:01;;;;;;;7.80;2.70;;;;;;;21.23;100.00;96043.97;5066744;28;20697;-83
2023/07/04 00:36:29;;;;;;;3.88;2.10;;;;;;;21.39;100.00;96052.19;5095337;28;20469;-83
2023/07/04 00:38:56;;;;;;;5.65;2.10;;;;;;;21.44;100.00;96053.34;5093596;27;20030;-83
2023/07/04 00:41:24;;;;;;;5.10;2.67;;;;;;;21.35;100.00;96045.66;5083545;28;20031;-84
2023/07/04 00:44:12;;;;;;;6.55;2.78;;;;;;;21.12;100.00;96050.94;5121384;27;20110;-82
2023/07/04 00:47:06;;;;;;;6.00;2.58;;;;;;;21.38;100.00;96047.88;5078890;28;20038;-83
2023/07/04 00:49:42;;;;;;;5.55;2.15;;;;;;;21.30;100.00;96060.75;5070097;27;20027;-83
2023/07/04 00:52:23;;;;;;;6.35;3.45;;;;;;;21.23;100.00;96058.19;5105049;27;20027;-83
2023/07/04 00:54:57;;;;;;;9.10;3.00;;;;;;;21.34;100.00;96051.22;5093367;27;20027;-83
2023/07/04 00:57:31;;;;;;;5.15;2.53;;;;;;;21.24;100.00;96048.28;5084209;28;20480;-83
2023/07/04 00:59:58;;;;;;;6.25;2.70;;;;;;;21.16;100.00;96052.94;5097526;27;20027;-83
2023/07/04 01:02:28;;;;;;;5.13;2.30;;;;;;;21.17;100.00;96046.53;5081321;28;20027;-83
2023/07/04 01:04:56;;;;;;;6.47;2.40;;;;;;;21.14;100.00;96048.88;5097223;27;20514;-84
2023/07/04 01:07:23;;;;;;;7.13;2.60;;;;;;;21.05;100.00;96050.22;5075434;28;20036;-84
2023/07/04 01:09:57;;;;;;;7.53;2.55;;;;;;;21.09;100.00;96054.91;5103183;28;20062;-83
2023/07/04 01:12:27;;;;;;;5.38;2.28;;;;;;;21.00;100.00;96047.44;5071844;28;20031;-83
2023/07/04 01:14:54;;;;;;;6.15;2.60;;;;;;;21.11;100.00;96046.66;5092291;27;20035;-83
2023/07/04 01:17:19;;;;;;;5.90;2.50;;;;;;;20.88;100.00;96050.88;5100086;28;20020;-83
2023/07/04 01:19:46;;;;;;;8.43;2.08;;;;;;;20.83;100.00;96056.13;5075048;28;20057;-83
2023/07/04 01:22:31;;;;;;;5.88;2.38;;;;;;;20.64;100.00;96067.91;5073675;28;20477;-83
2023/07/04 01:25:37;;;;;;;6.53;2.13;;;;;;;20.59;100.00;96068.59;5084759;28;20030;-83
2023/07/04 01:28:05;;;;;;;6.32;2.30;;;;;;;20.75;100.00;96055.63;5089377;28;20040;-83
2023/07/04 01:30:33;;;;;;;7.97;2.70;;;;;;;20.69;100.00;96057.31;5079399;28;20546;-83
2023/07/04 01:33:00;;;;;;;6.38;2.47;;;;;;;20.63;100.00;96059.06;5101748;28;20054;-83
2023/07/04 01:35:27;;;;;;;5.68;2.30;;;;;;;20.32;100.00;96057.41;5092787;28;20080;-83
2023/07/04 01:37:53;;;;;;;6.53;2.28;;;;;;;20.18;100.00;96050.56;5075126;28;20473;-83
2023/07/04 01:40:19;;;;;;;6.13;2.70;;;;;;;20.33;100.00;96053.69;5076091;28;20023;-83
2023/07/04 01:42:45;;;;;;;8.25;3.17;;;;;;;20.47;100.00;96052.47;5101783;28;20036;-83
2023/07/04 01:45:12;;;;;;;6.45;2.17;;;;;;;20.29;100.00;96052.50;5079198;28;20080;-83
2023/07/04 01:47:44;;;;;;;7.35;2.65;;;;;;;20.48;100.00;96051.41;5118099;28;20034;-81
2023/07/04 01:50:12;;;;;;;5.90;2.37;;;;;;;20.12;100.00;96051.47;5097648;28;20151;-83
2023/07/04 01:52:40;;;;;;;4.80;2.25;;;;;;;20.41;100.00;96052.56;5079136;28;20036;-83
2023/07/04 01:55:07;;;;;;;5.10;2.00;;;;;;;20.41;100.00;96053.38;5093629;28;20450;-83
2023/07/04 01:57:32;;;;;;;6.40;2.60;;;;;;;20.34;100.00;96052.63;5084235;27;20016;-83
2023/07/04 01:59:59;;;;;;;6.60;3.55;;;;;;;20.47;100.00;96055.13;5093841;28;20481;-83
2023/07/04 02:02:24;;;;;;;4.18;2.03;;;;;;;20.13;100.00;96058.44;5083597;27;20034;-83
2023/07/04 02:04:50;;;;;;;6.63;2.42;;;;;;;20.04;100.00;96060.59;5094029;28;20019;-83
2023/07/04 02:07:16;;;;;;;6.32;2.60;;;;;;;20.08;100.00;96066.31;5102029;27;20019;-83
2023/07/04 02:09:43;;;;;;;4.78;2.28;;;;;;;20.06;100.00;96068.41;5082505;28;20023;-83
2023/07/04 02:12:09;;;;;;;5.57;2.37;;;;;;;20.34;100.00;96055.31;5103279;27;20034;-83
2023/07/04 02:14:35;;;;;;;6.40;2.40;;;;;;;20.25;100.00;96067.31;5093284;27;20027;-83
2023/07/04 02:17:01;;;;;;;5.53;2.30;;;;;;;20.21;100.00;96072.28;5110699;28;20635;-83
2023/07/04 02:19:27;;;;;;;7.63;1.85;;;;;;;20.29;100.00;96076.53;5089471;27;20019;-83
2023/07/04 02:21:56;;;;;;;5.80;2.75;;;;;;;20.09;100.00;96070.63;5095795;28;20047;-83
2023/07/04 02:24:23;;;;;;;3.97;2.10;;;;;;;20.33;100.00;96067.03;5103602;28;20020;-83
2023/07/04 02:26:49;;;;;;;5.20;2.47;;;;;;;20.31;100.00;96076.31;5080449;28;20370;-83
2023/07/04 02:29:16;;;;;;;5.67;2.57;;;;;;;20.05;100.00;96078.22;5084314;28;20381;-84
2023/07/04 02:31:42;;;;;;;5.80;2.30;;;;;;;20.23;100.00;96077.44;5087468;28;20106;-83
2023/07/04 02:34:08;;;;;;;5.37;2.20;;;;;;;20.15;100.00;96072.38;5080334;28;20072;-83
2023/07/04 02:36:34;;;;;;;7.22;2.38;;;;;;;20.25;100.00;96078.84;5099619;27;20027;-83
2023/07/04 02:38:59;;;;;;;6.88;2.70;;;;;;;20.30;100.00;96083.50;5095652;28;20019;-83
2023/07/04 02:41:25;;;;;;;4.43;2.10;;;;;;;20.23;100.00;96080.09;5101377;28;20538;-83
2023/07/04 02:43:53;;;;;;;6.93;2.33;;;;;;;20.14;100.00;96084.91;5082701;28;20032;-83
2023/07/04 02:46:19;;;;;;;7.00;1.98;;;;;;;20.08;100.00;96082.31;5086673;28;20060;-83
2023/07/04 02:48:54;;;;;;;7.07;3.27;;;;;;;20.20;100.00;96072.53;5078965;28;20032;-83
2023/07/04 02:51:20;;;;;;;6.80;2.57;;;;;;;20.16;100.00;96076.69;5083784;27;20023;-83
2023/07/04 02:53:46;;;;;;;5.07;2.30;;;;;;;20.31;100.00;96077.13;5103553;28;20491;-83
2023/07/04 02:56:12;;;;;;;5.07;1.95;;;;;;;20.14;100.00;96081.44;5093782;27;20553;-83
2023/07/04 02:58:38;;;;;;;6.07;2.47;;;;;;;19.99;100.00;96079.97;5110304;28;20046;-83
2023/07/04 03:01:04;;;;;;;6.30;2.27;;;;;;;20.24;100.00;96079.06;5091137;28;20024;-83
2023/07/04 03:03:31;;;;;;;6.87;2.50;;;;;;;20.03;100.00;96075.00;5074767;28;20027;-83
2023/07/04 03:06:00;;;;;;;5.32;2.30;;;;;;;20.29;100.00;96076.53;5084425;28;20063;-83
2023/07/04 03:08:26;;;;;;;6.87;2.97;;;;;;;20.29;100.00;96081.88;5103964;28;20110;-83
2023/07/04 03:10:52;;;;;;;6.03;2.40;;;;;;;20.02;100.00;96084.03;5080599;27;21367;-83
2023/07/04 03:13:21;;;;;;;6.53;2.60;;;;;;;20.15;100.00;96083.06;5079994;28;20098;-83
2023/07/04 03:15:47;;;;;;;5.23;2.30;;;;;;;20.00;100.00;96092.25;5103931;27;20765;-84
2023/07/04 03:18:13;;;;;;;12.73;2.45;;;;;;;20.17;100.00;96086.34;5097180;27;20524;-83
2023/07/04 03:20:40;;;;;;;5.87;2.33;;;;;;;20.05;100.00;96090.78;5100822;28;20477;-83
2023/07/04 03:23:15;;;;;;;5.80;2.55;;;;;;;20.06;100.00;96085.22;5097595;27;20027;-87
2023/07/04 03:25:41;;;;;;;6.43;3.00;;;;;;;20.02;100.00;96090.19;5079093;28;20024;-85
2023/07/04 03:28:07;;;;;;;5.63;2.47;;;;;;;20.27;100.00;96093.81;5078987;28;20030;-85
2023/07/04 03:30:34;;;;;;;4.88;2.58;;;;;;;20.05;100.00;96094.25;5079105;28;20023;-86
2023/07/04 03:33:07;;;;;;;6.78;2.42;;;;;;;19.95;100.00;96093.94;5088903;28;20048;-86
2023/07/04 03:35:38;;;;;;;7.55;3.40;;;;;;;19.91;100.00;96098.91;5081141;28;20032;-86
2023/07/04 03:38:04;;;;;;;4.72;2.45;;;;;;;20.00;100.00;96091.44;5063301;28;20030;-85
2023/07/04 03:40:30;;;;;;;6.57;3.10;;;;;;;20.06;100.00;96089.75;5112838;27;20102;-87
2023/07/04 03:42:56;;;;;;;5.65;2.30;;;;;;;20.07;100.00;96099.38;5093653;28;20099;-87
2023/07/04 03:45:21;;;;;;;5.25;2.88;;;;;;;20.00;100.00;96091.44;5085115;28;20028;-87
2023/07/04 03:47:47;;;;;;;5.70;2.30;;;;;;;19.71;100.00;96098.31;5106385;28;20019;-87
2023/07/04 03:50:13;;;;;;;6.00;3.07;;;;;;;19.89;100.00;96098.34;5086135;28;20073;-87
2023/07/04 03:52:39;;;;;;;5.22;2.35;;;;;;;19.89;100.00;96098.34;5078812;28;20016;-87
2023/07/04 03:55:06;;;;;;;4.60;1.90;;;;;;;20.01;100.00;96095.75;5099407;28;20027;-88
2023/07/04 03:57:31;;;;;;;6.45;2.60;;;;;;;20.01;100.00;96085.06;5085302;27;20016;-88
2023/07/04 03:59:57;;;;;;;7.25;2.60;;;;;;;19.91;100.00;96093.56;5096820;27;20058;-88
2023/07/04 04:02:23;;;;;;;5.05;2.33;;;;;;;19.95;100.00;96086.78;5083165;28;20081;-87
2023/07/04 04:04:49;;;;;;;5.55;2.45;;;;;;;20.00;100.00;96096.78;5097321;27;20087;-87
2023/07/04 04:07:15;;;;;;;6.75;2.67;;;;;;;19.82;100.00;96089.59;5092558;28;20238;-87
2023/07/04 04:09:40;;;;;;;6.35;2.30;;;;;;;20.22;100.00;96095.31;5097520;28;20024;-87
2023/07/04 04:12:07;;;;;;;10.88;2.50;;;;;;;20.28;100.00;96096.25;5099262;28;20024;-88
2023/07/04 04:14:35;;;;;;;4.20;2.50;;;;;;;20.31;100.00;96089.66;5105362;27;20469;-87
2023/07/04 04:17:03;;;;;;;5.78;2.72;;;;;;;20.14;100.00;96087.59;5102595;28;20058;-87
2023/07/04 04:19:29;;;;;;;5.80;2.63;;;;;;;20.13;100.00;96077.94;5104152;27;20560;-87
2023/07/04 04:21:55;;;;;;;5.15;2.35;;;;;;;20.16;100.00;96082.03;5081092;27;20028;-87
2023/07/04 04:24:21;;;;;;;5.88;2.72;;;;;;;20.01;100.00;96091.22;5111217;27;20053;-88
2023/07/04 04:26:48;;;;;;;4.57;1.98;;;;;;;19.88;100.00;96082.53;5098194;27;20438;-88
2023/07/04 04:29:18;;;;;;;5.47;2.67;;;;;;;20.02;100.00;96095.53;5088362;28;20110;-87
2023/07/04 04:31:47;;;;;;;6.53;2.22;;;;;;;20.12;100.00;96091.50;5095726;27;20015;-88
2023/07/04 04:34:14;;;;;;;7.05;2.53;;;;;;;20.09;100.00;96086.66;5071848;28;20028;-86
2023/07/04 04:36:39;;;;;;;4.72;2.20;;;;;;;20.13;100.00;96090.50;5081479;28;20038;-88
2023/07/04 04:39:05;;;;;;;5.43;2.50;;;;;;;20.13;100.00;96085.97;5080386;28;20019;-88
2023/07/04 04:41:31;;;;;;;5.93;2.33;;;;;;;19.98;100.00;96097.00;5086566;28;20073;-88
2023/07/04 04:43:59;;;;;;;4.72;2.22;;;;;;;20.40;100.00;96091.00;5086611;27;20027;-87
2023/07/04 04:46:25;;;;;;;4.10;1.98;;;;;;;20.13;100.00;96096.63;5099556;28;20392;-86
2023/07/04 04:49:03;;;;;;;4.97;2.20;;;;;;;20.36;100.00;96097.81;5085525;28;20020;-86
2023/07/04 04:51:34;;;;;;;8.27;2.92;;;;;;;20.30;100.00;96101.38;5095462;27;20031;-85
2023/07/04 04:54:01;;;;;;;5.22;2.40;;;;;;;20.15;100.00;96099.88;5113927;27;20474;-85
2023/07/04 04:56:26;;;;;;;5.95;2.10;;;;;;;20.30;100.00;96104.88;5108076;28;20145;-86
2023/07/04 04:58:52;;;;;;;5.03;2.67;;;;;;;20.61;100.00;96111.09;5084648;28;20047;-83
2023/07/04 05:01:22;;;;;;;5.18;2.65;;;;;;;20.42;100.00;96116.44;5103443;28;20171;-84
2023/07/04 05:03:53;;;;;;;6.10;2.55;;;;;;;20.87;100.00;96110.75;5072399;28;20049;-83
2023/07/04 05:06:24;;;;;;;5.07;2.20;;;;;;;20.93;100.00;96117.84;5076059;28;20185;-84
2023/07/04 05:08:51;;;;;;;5.10;2.50;;;;;;;21.07;100.00;96120.34;5089030;27;20023;-83
2023/07/04 05:11:17;;;;;;;7.28;2.45;;;;;;;20.52;100.00;96121.25;5086397;27;20053;-84
2023/07/04 05:13:46;;;;;;;5.45;2.15;;;;;;;20.76;100.00;96121.38;5095904;27;20031;-84
2023/07/04 05:16:15;;;;;;;7.32;2.42;;;;;;;21.25;100.00;96124.81;5111941;28;20019;-84
2023/07/04 05:18:42;;;;;;;5.75;2.25;;;;;;;20.75;100.00;96133.94;5105455;28;20034;-84
2023/07/04 05:21:16;;;;;;;6.80;2.53;;;;;;;21.22;100.00;96130.59;5083316;28;20062;-85
2023/07/04 05:23:44;;;;;;;6.07;2.33;;;;;;;21.42;100.00;96129.28;5097660;28;20030;-84
2023/07/04 05:26:15;;;;;;;4.03;2.22;;;;;;;21.58;100.00;96129.66;5104281;28;20122;-86
2023/07/04 05:28:42;;;;;;;4.28;1.98;;;;;;;21.39;100.00;96124.41;5093196;28;20036;-84
2023/07/04 05:31:12;;;;;;;6.00;2.22;;;;;;;21.40;100.00;96136.75;5078496;28;20032;-84
2023/07/04 05:33:39;;;;;;;6.93;2.05;;;;;;;21.59;100.00;96131.28;5111655;27;20083;-83
2023/07/04 05:36:07;;;;;;;4.70;2.17;;;;;;;21.71;100.00;96134.00;5109763;27;20028;-83
2023/07/04 05:38:34;;;;;;;5.05;1.98;;;;;;;21.91;100.00;96139.81;5117795;27;20027;-84
2023/07/04 05:41:00;;;;;;;4.28;2.00;;;;;;;21.80;100.00;96138.78;5092140;27;20083;-83
2023/07/04 05:43:27;;;;;;;2.15;1.40;;;;;;;22.79;100.00;96129.91;5085359;28;20028;-84
2023/07/04 05:45:54;;;;;;;3.33;1.67;;;;;;;23.01;100.00;96138.94;5096500;27;20526;-84
2023/07/04 05:48:20;;;;;;;3.20;1.83;;;;;;;22.95;100.00;96144.44;5092099;27;20031;-86
2023/07/04 05:51:06;;;;;;;6.70;2.03;;;;;;;22.48;100.00;96149.91;5107115;28;20024;-87
2023/07/04 05:53:36;;;;;;;3.05;1.83;;;;;;;22.41;100.00;96143.88;5092762;28;20028;-84
2023/07/04 05:56:05;;;;;;;4.53;2.20;;;;;;;22.31;100.00;96153.31;5075838;27;20096;-84
2023/07/04 05:58:31;;;;;;;3.97;2.05;;;;;;;22.73;100.00;96147.75;5098466;27;20042;-83
2023/07/04 06:01:02;;;;;;;4.15;1.70;;;;;;;22.87;100.00;96147.47;5124097;27;20035;-83
2023/07/04 06:03:28;;;;;;;5.03;1.75;;;;;;;23.09;100.00;96145.78;5112465;27;20027;-85
2023/07/04 06:05:53;;;;;;;4.05;1.92;;;;;;;23.11;100.00;96149.03;5099428;27;20030;-85
2023/07/04 06:08:19;;;;;;;4.35;1.85;;;;;;;23.14;100.00;96147.72;5135709;27;20023;-85
2023/07/04 06:10:45;;;;;;;4.65;2.10;;;;;;;23.67;100.00;96147.31;5117963;28;20024;-84
2023/07/04 06:13:10;;;;;;;4.53;1.92;;;;;;;23.42;100.00;96149.59;5090999;28;20465;-86
2023/07/04 06:15:40;;;;;;;3.42;1.80;;;;;;;23.53;100.00;96157.53;5091388;28;20028;-85
2023/07/04 06:18:06;;;;;;;4.35;1.80;;;;;;;23.63;100.00;96162.28;5108511;27;20034;-85
2023/07/04 06:20:34;;;;;;;4.82;2.08;;;;;;;23.62;100.00;96152.59;5077579;28;20027;-85
2023/07/04 06:22:59;;;;;;;5.45;1.60;;;;;;;23.53;100.00;96160.22;5094861;27;20122;-85
2023/07/04 06:25:27;;;;;;;6.20;1.80;;;;;;;23.72;100.00;96165.41;5111021;27;20027;-85
2023/07/04 06:27:53;;;;;;;3.13;1.60;;;;;;;23.82;100.00;96165.56;5082895;27;20023;-85
2023/07/04 06:30:18;;;;;;;4.18;1.80;;;;;;;23.67;100.00;96158.03;5106008;28;20031;-85
2023/07/04 06:32:44;;;;;;;7.90;2.53;;;;;;;24.16;100.00;96160.97;5104472;27;20052;-86
2023/07/04 06:35:09;;;;;;;3.67;1.77;;;;;;;23.84;100.00;96162.63;5085727;27;20031;-86
2023/07/04 06:37:35;;;;;;;5.00;1.80;;;;;;;23.93;100.00;96161.16;5084457;28;20032;-86
2023/07/04 06:40:01;;;;;;;4.32;2.00;;;;;;;24.27;100.00;96161.94;5088532;27;20035;-86
2023/07/04 06:42:26;;;;;;;3.95;1.63;;;;;;;24.98;100.00;96161.22;5085948;28;20023;-85
2023/07/04 06:44:57;;;;;;;3.13;1.63;;;;;;;24.32;100.00;96169.28;5090545;27;20121;-86
2023/07/04 06:47:23;;;;;;;5.60;2.17;;;;;;;23.83;100.00;96167.19;5080990;27;20488;-86
2023/07/04 06:49:48;;;;;;;4.45;2.35;;;;;;;23.60;100.00;96162.75;5092236;27;20038;-86
2023/07/04 06:52:15;;;;;;;4.28;1.88;;;;;;;23.82;100.00;96164.75;5080652;28;20015;-87
2023/07/04 06:54:56;;;;;;;3.38;1.60;;;;;;;24.30;100.00;96160.63;5089068;28;20484;-86
2023/07/04 06:57:22;;;;;;;4.22;2.08;;;;;;;23.87;100.00;96165.63;5106051;27;20023;-86
2023/07/04 06:59:50;;;;;;;6.07;2.67;;;;;;;24.28;100.00;96166.25;5101337;28;20051;-86
2023/07/04 07:02:16;;;;;;;4.07;1.73;;;;;;;24.58;100.00;96170.44;5091393;27;20023;-87
2023/07/04 07:04:47;;;;;;;4.13;2.03;;;;;;;23.79;100.00;96171.44;5082394;28;20413;-86
2023/07/04 07:07:13;;;;;;;5.63;2.60;;;;;;;24.62;100.00;96163.50;5112151;27;20035;-85
2023/07/04 07:09:40;;;;;;;4.55;2.08;;;;;;;25.31;100.00;96165.66;5078347;28;20035;-85
2023/07/04 07:12:11;;;;;;;5.45;2.22;;;;;;;25.60;100.00;96161.63;5079422;27;20019;-86
2023/07/04 07:14:38;;;;;;;5.03;2.40;;;;;;;26.65;100.00;96155.59;5090429;28;20047;-85
2023/07/04 07:17:06;;;;;;;5.07;1.92;;;;;;;27.36;100.00;96154.22;5097737;27;20020;-86
2023/07/04 07:19:32;;;;;;;3.35;1.60;;;;;;;27.83;100.00;96156.72;5089754;28;20024;-86
2023/07/04 07:22:00;;;;;;;6.43;2.20;;;;;;;27.73;97.65;96154.81;5095239;27;20491;-85
2023/07/04 07:24:28;;;;;;;5.28;2.20;;;;;;;28.93;87.41;96151.63;5099115;27;20011;-85
2023/07/04 07:26:53;;;;;;;3.75;1.70;;;;;;;27.91;86.08;96153.47;5109339;28;20015;-85
2023/07/04 07:29:19;;;;;;;6.40;2.80;;;;;;;28.30;84.17;96154.78;5099870;27;20460;-85
2023/07/04 07:31:45;;;;;;;7.47;2.53;;;;;;;29.49;72.63;96151.31;5090310;27;20122;-86
2023/07/04 07:34:14;;;;;;;7.70;2.80;;;;;;;28.66;77.42;96161.72;5087933;27;20026;-86
2023/07/04 07:36:42;;;;;;;9.43;2.97;;;;;;;28.40;69.18;96154.78;5089273;28;20713;-86
2023/07/04 07:39:10;;;;;;;12.30;3.53;;;;;;;29.67;55.23;96149.84;5094912;27;20019;-83
2023/07/04 07:41:51;;;;;;;7.75;3.35;;;;;;;29.03;55.42;96148.88;5092107;28;20038;-85
2023/07/04 07:44:17;;;;;;;7.00;2.83;;;;;;;28.56;61.02;96150.13;5072481;27;20122;-90
2023/07/04 07:46:46;;;;;;;8.38;3.00;;;;;;;29.20;57.91;96156.66;5090900;28;20107;-85
2023/07/04 07:49:28;;;;;;;11.57;3.72;;;;;;;29.34;53.55;96150.34;5087513;27;20084;-85
2023/07/04 07:52:05;;;;;;;7.68;3.08;;;;;;;30.17;51.36;96139.66;5079310;28;20031;-85
2023/07/04 07:54:31;;;;;;;6.63;2.88;;;;;;;28.78;64.37;96153.31;5085269;27;20057;-84
2023/07/04 07:56:56;;;;;;;7.90;2.83;;;;;;;29.36;63.95;96144.63;5089618;27;20055;-84
2023/07/04 07:59:22;;;;;;;7.90;3.17;;;;;;;30.28;57.64;96142.03;5092898;28;20077;-85
2023/07/04 08:01:48;;;;;;;9.45;3.63;;;;;;;29.82;54.71;96131.56;5102933;28;20039;-85
2023/07/04 08:04:14;;;;;;;9.15;3.58;;;;;;;29.62;57.46;96137.16;5082675;28;20019;-85
2023/07/04 08:06:42;;;;;;;8.20;3.15;;;;;;;28.55;61.85;96140.41;5094773;28;20247;-84
2023/07/04 08:09:19;;;;;;;10.93;4.13;;;;;;;28.96;60.09;96137.53;5094966;28;20030;-85
2023/07/04 08:11:45;;;;;;;10.70;4.30;;;;;;;28.39;62.93;96143.16;5080240;28;20020;-85
2023/07/04 08:14:13;;;;;;;7.93;4.15;;;;;;;30.02;55.47;96141.44;5079296;28;20024;-85
2023/07/04 08:16:49;;;;;;;6.45;3.47;;;;;;;31.21;50.63;96134.38;5094417;28;20077;-85
2023/07/04 08:19:18;;;;;;;8.68;3.90;;;;;;;29.73;56.47;96146.81;5107016;27;20090;-85
2023/07/04 08:21:44;;;;;;;10.45;4.53;;;;;;;30.87;49.44;96141.91;5097187;28;20025;-84
2023/07/04 08:24:12;;;;;;;10.60;5.85;;;;;;;30.66;43.46;96134.00;5100512;27;20032;-84
2023/07/04 08:26:40;;;;;;;9.77;5.40;;;;;;;31.54;43.61;96136.38;5105164;28;20058;-86
2023/07/04 08:29:07;;;;;;;9.68;5.53;;;;;;;32.24;40.53;96121.91;5080423;27;21052;-85
2023/07/04 08:31:33;;;;;;;10.25;5.82;;;;;;;33.69;38.32;96112.03;5104951;27;20071;-85
2023/07/04 08:33:59;;;;;;;8.80;5.10;;;;;;;31.97;42.76;96128.91;5088180;27;20031;-85
2023/07/04 08:36:26;;;;;;;8.27;4.97;;;;;;;30.45;46.86;96128.00;5083123;28;20020;-85
2023/07/04 08:38:58;;;;;;;7.95;4.22;;;;;;;28.80;54.89;96134.06;5099722;28;20019;-85
2023/07/04 08:41:53;;;;;;;10.50;6.03;;;;;;;27.88;58.54;96148.63;5097393;28;20026;-85
2023/07/04 08:44:24;;;;;;;11.82;6.85;;;;;;;27.97;58.58;96129.97;5085099;27;20023;-85
2023/07/04 08:46:53;;;;;;;10.77;5.63;;;;;;;28.08;58.72;96134.28;5100352;28;20015;-84
2023/07/04 08:49:22;;;;;;;11.38;5.45;;;;;;;28.96;56.80;96140.22;5096155;27;20057;-85
2023/07/04 08:51:55;;;;;;;9.95;5.57;;;;;;;28.86;54.94;96143.78;5077182;28;20110;-85
2023/07/04 08:54:21;;;;;;;13.85;6.88;;;;;;;28.60;56.36;96138.47;5075451;28;20060;-85
2023/07/04 08:56:48;;;;;;;10.52;4.82;;;;;;;29.53;53.85;96133.41;5104951;27;20019;-84
2023/07/04 08:59:21;;;;;;;10.43;5.47;;;;;;;29.87;53.78;96133.41;5093079;28;20020;-85
2023/07/04 09:02:28;;;;;;;10.05;4.65;;;;;;;30.30;51.64;96139.00;5118672;27;20028;-85
2023/07/04 09:05:35;;;;;;;9.00;4.13;;;;;;;30.50;51.33;96135.25;5090101;28;20074;-84
2023/07/04 09:08:39;;;;;;;10.35;4.75;;;;;;;29.71;55.80;96137.34;5105074;27;20114;-85
2023/07/04 09:11:08;;;;;;;8.80;4.88;;;;;;;29.92;52.52;96146.94;5044963;28;20086;-84
2023/07/04 09:13:42;;;;;;;10.27;4.93;;;;;;;30.64;49.03;96152.47;5093993;28;20020;-85
2023/07/04 09:16:39;;;;;;;10.00;4.88;;;;;;;29.83;51.51;96157.56;5130373;27;20024;-85
2023/07/04 09:19:08;;;;;;;10.23;5.15;;;;;;;29.46;52.84;96151.88;5075533;28;20150;-85
2023/07/04 09:21:36;;;;;;;11.32;5.50;;;;;;;29.00;55.33;96157.56;5086754;28;20511;-85
2023/07/04 09:24:22;;;;;;;11.13;5.40;;;;;;;28.55;58.49;96148.53;5083517;28;20027;-84
2023/07/04 09:26:54;;;;;;;11.10;5.78;;;;;;;29.15;54.70;96153.97;5082459;28;20031;-84
2023/07/04 09:29:22;;;;;;;;;;;;;;;30.18;51.50;96144.84;5089293;28;20024;-84
2023/07/04 09:31:56;;;;;;;10.25;5.95;;;;;;;30.98;44.98;96154.25;5108140;28;19907;-85
2023/07/04 09:34:49;;;;;;;12.77;7.03;;;;;;;31.28;41.62;96142.16;5092184;28;20023;-85
2023/07/04 09:37:16;;;;;;;;;;;;;;;29.43;42.82;96149.72;5097250;28;20079;-84
2023/07/04 09:39:49;;;;;;;12.35;7.10;;;;;;;30.41;41.33;96145.13;5116419;28;20308;-84
2023/07/04 09:42:19;;;;;;;12.68;7.15;;;;;;;30.24;41.97;96140.94;5100873;28;20051;-84
2023/07/04 09:44:46;;;;;;;12.60;8.27;;;;;;;31.09;39.15;96146.81;5070878;28;20112;-85
2023/07/04 09:47:23;;;;;;;16.55;8.20;;;;;;;30.94;40.56;96139.66;5110188;28;20033;-84
2023/07/04 09:50:16;;;;;;;14.73;7.28;;;;;;;29.15;44.41;96143.94;5104539;28;20035;-87
2023/07/04 09:52:42;;;;;;;15.68;8.20;;;;;;;29.27;45.10;96144.41;5053697;28;20050;-83
2023/07/04 09:55:28;;;;;;;11.95;7.18;;;;;;;28.24;48.50;96140.47;5100567;28;20053;-83
2023/07/04 09:58:16;;;;;;;10.48;6.72;;;;;;;27.87;55.21;96152.41;5080570;28;20064;-83
2023/07/04 10:00:59;;;;;;;12.52;6.40;;;;;;;27.61;56.63;96154.25;5079478;28;20601;-83
2023/07/04 10:03:25;;;;;;;14.25;7.50;;;;;;;29.01;51.27;96143.75;5078002;28;20051;-82
2023/07/04 10:05:51;;;;;;;11.98;7.40;;;;;;;29.99;44.86;96147.41;5084608;28;20194;-83
2023/07/04 10:08:27;;;;;;;12.80;8.25;;;;;;;29.96;43.52;96139.03;5075594;28;20103;-83
2023/07/04 10:10:55;;;;;;;17.45;9.13;;;;;;;29.62;43.17;96137.16;5077247;28;20057;-82
2023/07/04 10:13:33;;;;;;;14.38;9.00;;;;;;;28.71;44.81;96139.28;5070881;28;20025;-80
2023/07/04 10:15:59;;;;;;;13.60;8.10;;;;;;;29.29;44.19;96128.69;5082668;28;20059;-80
2023/07/04 10:18:30;;;;;;;14.02;8.38;;;;;;;30.61;41.15;96136.75;5079242;27;20019;-80
2023/07/04 10:20:59;;;;;;;11.38;7.57;;;;;;;30.82;39.08;96133.81;5082770;28;20023;-79
2023/07/04 10:23:27;;;;;;;10.40;6.97;;;;;;;29.42;45.58;96140.00;5078185;28;20027;-81
2023/07/04 10:25:56;;;;;;;10.82;6.85;;;;;;;30.18;43.11;96139.41;5074327;27;20024;-81
2023/07/04 10:28:28;;;;;;;13.57;7.68;;;;;;;32.36;38.56;96130.38;5119105;27;20023;-80
2023/07/04 10:31:21;;;;;;;14.75;8.88;;;;;;;32.72;36.13;96130.50;5069636;27;20081;-80
2023/07/04 10:34:06;;;;;;;17.13;9.02;;;;;;;33.50;32.62;96122.31;5083731;28;20511;-81
2023/07/04 10:36:34;;;;;;;15.88;9.55;;;;;;;33.09;33.03;96113.13;5094627;27;20473;-81
2023/07/04 10:39:04;;;;;;;13.85;8.38;;;;;;;32.19;34.61;96124.69;5085714;27;20053;-81
2023/07/04 10:41:38;;;;;;;13.02;7.85;;;;;;;31.07;36.85;96124.53;5080336;27;20058;-81
2023/07/04 10:44:10;;;;;;;14.95;8.88;;;;;;;30.10;37.90;96128.34;5103313;27;20062;-80
2023/07/04 10:46:43;;;;;;;12.00;7.75;;;;;;;31.24;35.70;96128.34;5105512;27;20027;-81
2023/07/04 10:49:15;;;;;;;14.45;8.23;;;;;;;31.08;34.58;96121.53;5091906;28;20031;-80
2023/07/04 10:51:44;;;;;;;16.98;9.00;;;;;;;30.94;36.68;96123.34;5089764;28;20023;-81
2023/07/04 10:54:12;;;;;;;11.93;7.43;;;;;;;32.11;35.29;96118.06;5102644;27;20027;-81
2023/07/04 10:56:46;;;;;;;15.15;8.45;;;;;;;32.53;34.64;96111.56;5078549;28;20035;-81
2023/07/04 10:59:26;;;;;;;12.02;7.72;;;;;;;33.92;31.81;96104.63;5110918;28;20102;-81
2023/07/04 11:01:58;;;;;;;11.70;7.88;;;;;;;34.39;30.79;96105.06;5089239;28;20024;-81
2023/07/04 11:04:31;;;;;;;12.98;7.65;;;;;;;34.59;30.27;96092.78;5087067;28;20024;-81
2023/07/04 11:07:05;;;;;;;12.20;7.68;;;;;;;34.46;29.65;96099.13;5083796;27;20126;-81
2023/07/04 11:09:42;;;;;;;12.32;7.20;;;;;;;33.86;29.74;96089.53;5124414;27;20027;-81
2023/07/04 11:12:15;;;;;;;10.93;7.97;;;;;;;34.26;31.10;96108.69;5104784;27;20323;-81
2023/07/04 11:14:41;;;;;;;;;;;;;;;33.23;31.55;96104.09;5121340;27;20015;-81
2023/07/04 11:17:12;;;;;;;10.90;6.82;;;;;;;35.13;29.91;96100.81;5084926;27;19930;-80
2023/07/04 11:19:52;;;;;;;10.13;6.75;;;;;;;32.52;31.91;96107.22;5084775;28;20038;-80
2023/07/04 11:22:18;;;;;;;10.30;6.47;;;;;;;32.97;32.84;96090.28;5101326;27;20015;-81
2023/07/04 11:24:43;;;;;;;10.38;6.45;;;;;;;32.28;33.99;96103.84;5081928;28;20058;-81
2023/07/04 11:27:15;;;;;;;12.05;6.35;;;;;;;32.53;32.61;96092.50;5094768;28;20036;-81
2023/07/04 11:30:10;;;;;;;9.85;5.60;;;;;;;31.29;35.19;96102.22;5090608;28;20024;-81
2023/07/04 11:32:57;;;;;;;10.70;5.97;;;;;;;31.57;35.63;96095.81;5075966;27;20023;-81
2023/07/04 11:35:32;;;;;;;8.60;5.95;;;;;;;31.02;36.97;96098.28;5072149;28;20028;-81
2023/07/04 11:38:12;;;;;;;10.90;6.15;;;;;;;32.59;34.28;96102.16;5110405;27;20016;-81
2023/07/04 11:40:46;;;;;;;11.70;5.93;;;;;;;32.33;34.50;96090.16;5078829;28;20040;-81